createdAt,value
2022-10-10T00:00:10.777Z,10.51
2022-10-10T00:03:12.789Z,10.51
2022-10-10T00:06:15.959Z,10.46
2022-10-10T00:09:17.463Z,10.53
2022-10-10T00:12:18.957Z,10.58
2022-10-10T00:15:20.516Z,10.61
2022-10-10T00:18:22.011Z,10.57
2022-10-10T00:21:23.737Z,10.60
2022-10-10T00:24:25.328Z,10.68
2022-10-10T00:27:26.754Z,10.72
2022-10-10T00:30:28.420Z,10.67
2022-10-10T00:33:29.841Z,10.64
2022-10-10T00:36:31.304Z,10.67
2022-10-10T00:39:32.732Z,10.66
2022-10-10T00:42:34.489Z,10.69
2022-10-10T00:45:35.878Z,10.71
2022-10-10T00:48:41.055Z,10.74
2022-10-10T00:51:44.877Z,10.77
2022-10-10T00:54:46.357Z,10.73
2022-10-10T00:57:48.993Z,10.77
2022-10-10T01:00:50.942Z,10.76
2022-10-10T01:03:56.832Z,10.74
2022-10-10T01:06:59.642Z,10.72
2022-10-10T01:10:07.331Z,10.72
2022-10-10T01:13:27.841Z,10.67
2022-10-10T01:16:43.252Z,10.66
2022-10-10T01:20:22.639Z,10.66
2022-10-10T01:23:48.582Z,10.60
2022-10-10T01:27:07.552Z,10.65
2022-10-10T01:30:12.491Z,10.69
2022-10-10T01:33:18.237Z,10.70
2022-10-10T01:36:25.980Z,10.69
2022-10-10T01:39:40.656Z,10.65
2022-10-10T01:42:50.697Z,10.63
2022-10-10T01:45:53.841Z,10.62
2022-10-10T01:48:58.162Z,10.64
2022-10-10T01:52:27.638Z,10.68
2022-10-10T01:55:44.240Z,10.66
2022-10-10T01:58:55.296Z,10.61
2022-10-10T02:02:02.732Z,10.66
2022-10-10T02:05:29.068Z,10.67
2022-10-10T02:08:42.148Z,10.73
2022-10-10T02:11:44.755Z,10.78
2022-10-10T02:14:50.621Z,10.82
2022-10-10T02:17:53.639Z,10.89
2022-10-10T02:20:55.830Z,10.92
2022-10-10T02:24:03.947Z,10.96
2022-10-10T02:27:11.181Z,10.96
2022-10-10T02:30:14.414Z,10.95
2022-10-10T02:33:32.498Z,10.94
2022-10-10T02:36:34.955Z,10.99
2022-10-10T02:39:41.249Z,11.02
2022-10-10T02:42:45.104Z,11.02
2022-10-10T02:45:46.873Z,10.92
2022-10-10T02:48:48.444Z,10.98
2022-10-10T02:51:50.316Z,11.00
2022-10-10T02:54:51.776Z,11.01
2022-10-10T02:57:53.528Z,11.07
2022-10-10T03:00:55.052Z,11.09
2022-10-10T03:03:56.742Z,11.11
2022-10-10T03:06:58.249Z,11.15
2022-10-10T03:09:59.736Z,11.20
2022-10-10T03:13:01.160Z,11.25
2022-10-10T03:16:03.407Z,11.23
2022-10-10T03:19:08.172Z,11.23
2022-10-10T03:22:10.009Z,11.20
2022-10-10T03:25:11.560Z,11.18
2022-10-10T03:28:13.414Z,11.18
2022-10-10T03:31:14.919Z,11.15
2022-10-10T03:34:16.493Z,11.10
2022-10-10T03:37:17.996Z,11.12
2022-10-10T03:40:19.486Z,11.13
2022-10-10T03:43:20.984Z,11.24
2022-10-10T03:46:22.692Z,11.26
2022-10-10T03:49:24.246Z,11.28
2022-10-10T03:52:25.712Z,11.29
2022-10-10T03:55:27.292Z,11.27
2022-10-10T03:58:28.764Z,11.29
2022-10-10T04:01:30.769Z,11.34
2022-10-10T04:04:32.691Z,11.33
2022-10-10T04:07:34.233Z,11.34
2022-10-10T04:10:35.659Z,11.38
2022-10-10T04:13:37.108Z,11.42
2022-10-10T04:16:38.610Z,11.50
2022-10-10T04:19:40.042Z,11.52
2022-10-10T04:22:42.668Z,11.53
2022-10-10T04:25:44.683Z,11.55
2022-10-10T04:28:46.319Z,11.51
2022-10-10T04:31:47.867Z,11.56
2022-10-10T04:34:49.617Z,11.56
2022-10-10T04:37:51.295Z,11.61
2022-10-10T04:40:52.850Z,11.65
2022-10-10T04:43:54.356Z,11.70
2022-10-10T04:46:56.469Z,11.71
2022-10-10T04:49:57.923Z,11.71
2022-10-10T04:52:59.433Z,11.74
2022-10-10T04:56:00.869Z,11.78
2022-10-10T04:59:02.401Z,11.80
2022-10-10T05:02:04.112Z,11.84
2022-10-10T05:05:06.281Z,11.85
2022-10-10T05:08:07.942Z,11.84
2022-10-10T05:11:09.413Z,11.82
2022-10-10T05:14:10.932Z,11.80
2022-10-10T05:17:12.656Z,11.82
2022-10-10T05:20:14.228Z,11.74
2022-10-10T05:23:16.869Z,11.80
2022-10-10T05:26:20.028Z,11.82
2022-10-10T05:29:21.745Z,11.83
2022-10-10T05:32:23.855Z,11.85
2022-10-10T05:35:25.342Z,11.79
2022-10-10T05:38:26.945Z,11.91
2022-10-10T05:41:28.531Z,11.99
2022-10-10T05:44:30.153Z,12.01
2022-10-10T05:47:31.824Z,12.05
2022-10-10T05:50:38.524Z,12.10
2022-10-10T05:53:40.046Z,12.17
2022-10-10T05:56:41.901Z,12.19
2022-10-10T05:59:43.393Z,12.18
2022-10-10T06:02:44.846Z,12.27
2022-10-10T06:05:49.992Z,12.35
2022-10-10T06:08:52.230Z,12.40
2022-10-10T06:11:53.860Z,12.41
2022-10-10T06:14:55.860Z,12.42
2022-10-10T06:17:57.473Z,12.46
2022-10-10T06:21:03.960Z,12.51
2022-10-10T06:24:06.913Z,12.59
2022-10-10T06:27:08.580Z,12.62
2022-10-10T06:30:10.536Z,12.69
2022-10-10T06:33:12.950Z,12.77
2022-10-10T06:36:15.449Z,12.82
2022-10-10T06:39:17.053Z,12.81
2022-10-10T06:42:18.542Z,12.76
2022-10-10T06:45:20.082Z,12.74
2022-10-10T06:48:21.620Z,12.73
2022-10-10T06:51:23.167Z,12.77
2022-10-10T06:54:24.609Z,12.88
2022-10-10T06:57:26.115Z,12.93
2022-10-10T07:00:27.625Z,12.97
2022-10-10T07:03:30.679Z,13.01
2022-10-10T07:06:34.851Z,13.10
2022-10-10T07:09:36.690Z,13.16
2022-10-10T07:12:52.332Z,13.27
2022-10-10T07:15:54.080Z,13.32
2022-10-10T07:18:55.643Z,13.37
2022-10-10T07:21:57.109Z,13.39
2022-10-10T07:25:00.859Z,13.45
2022-10-10T07:28:02.309Z,13.45
2022-10-10T07:31:06.814Z,13.45
2022-10-10T07:34:08.353Z,13.47
2022-10-10T07:37:09.939Z,13.59
2022-10-10T07:40:11.690Z,13.70
2022-10-10T07:43:13.205Z,13.82
2022-10-10T07:46:18.571Z,14.02
2022-10-10T07:49:20.172Z,14.19
2022-10-10T07:52:21.937Z,14.23
2022-10-10T07:55:23.531Z,14.31
2022-10-10T07:58:25.183Z,14.36
2022-10-10T08:01:26.942Z,14.35
2022-10-10T08:04:28.470Z,14.31
2022-10-10T08:07:30.253Z,14.27
2022-10-10T08:10:31.702Z,14.36
2022-10-10T08:13:33.868Z,14.35
2022-10-10T08:16:35.636Z,14.31
2022-10-10T08:19:37.136Z,14.35
2022-10-10T08:22:38.632Z,14.47
2022-10-10T08:25:40.137Z,14.55
2022-10-10T08:28:42.057Z,14.72
2022-10-10T08:31:43.607Z,14.93
2022-10-10T08:34:45.402Z,15.11
2022-10-10T08:37:46.873Z,15.13
2022-10-10T08:40:53.291Z,15.25
2022-10-10T08:44:10.787Z,15.46
2022-10-10T08:47:18.312Z,15.58
2022-10-10T08:50:32.955Z,15.75
2022-10-10T08:53:46.641Z,15.91
2022-10-10T08:56:50.205Z,16.05
2022-10-10T08:59:55.054Z,16.20
2022-10-10T09:02:58.975Z,16.38
2022-10-10T09:06:15.784Z,16.64
2022-10-10T09:09:24.410Z,16.75
2022-10-10T09:13:07.265Z,16.58
2022-10-10T09:16:45.241Z,16.71
2022-10-10T09:19:57.225Z,16.73
2022-10-10T09:23:21.819Z,16.83
2022-10-10T09:26:25.876Z,17.05
2022-10-10T09:29:41.569Z,17.14
2022-10-10T09:32:48.568Z,17.32
2022-10-10T09:35:53.207Z,17.60
2022-10-10T09:39:00.372Z,17.97
2022-10-10T09:42:05.228Z,18.18
2022-10-10T09:45:17.725Z,18.52
2022-10-10T09:48:22.197Z,18.75
2022-10-10T09:51:23.643Z,18.62
2022-10-10T09:54:25.131Z,18.35
2022-10-10T09:57:32.823Z,18.30
2022-10-10T10:00:36.654Z,18.42
2022-10-10T10:03:38.249Z,18.71
2022-10-10T10:06:44.740Z,18.79
2022-10-10T10:09:57.325Z,18.80
2022-10-10T10:12:58.817Z,18.72
2022-10-10T10:16:02.659Z,18.73
2022-10-10T10:19:04.806Z,18.76
2022-10-10T10:22:45.278Z,18.83
2022-10-10T10:26:06.573Z,18.81
2022-10-10T10:29:29.849Z,18.85
2022-10-10T10:33:06.742Z,18.97
2022-10-10T10:36:21.608Z,18.97
2022-10-10T10:39:39.750Z,19.01
2022-10-10T10:42:51.660Z,19.07
2022-10-10T10:45:56.205Z,19.20
2022-10-10T10:49:02.723Z,19.31
2022-10-10T10:52:29.145Z,19.37
2022-10-10T10:56:11.448Z,19.46
2022-10-10T11:00:16.614Z,19.48
2022-10-10T11:03:34.933Z,19.57
2022-10-10T11:07:19.676Z,19.65
2022-10-10T11:10:38.480Z,19.70
2022-10-10T11:13:42.810Z,19.79
2022-10-10T11:16:55.114Z,19.91
2022-10-10T11:20:03.225Z,19.90
2022-10-10T11:23:15.945Z,19.97
2022-10-10T11:26:25.492Z,20.06
2022-10-10T11:29:35.356Z,20.10
2022-10-10T11:33:05.487Z,20.16
2022-10-10T11:36:16.591Z,20.17
2022-10-10T11:39:30.172Z,20.28
2022-10-10T11:42:45.257Z,20.33
2022-10-10T11:45:54.465Z,20.29
2022-10-10T11:49:00.098Z,20.36
2022-10-10T11:52:33.488Z,20.46
2022-10-10T11:55:47.193Z,20.50
2022-10-10T11:58:56.383Z,20.53
2022-10-10T12:02:01.670Z,20.56
2022-10-10T12:05:07.840Z,20.60
2022-10-10T12:08:18.149Z,20.70
2022-10-10T12:11:25.975Z,20.70
2022-10-10T12:14:31.253Z,20.81
2022-10-10T12:17:36.083Z,20.86
2022-10-10T12:20:37.879Z,20.89
2022-10-10T12:23:41.154Z,20.92
2022-10-10T12:26:54.547Z,20.96
2022-10-10T12:29:55.996Z,21.08
2022-10-10T12:32:57.961Z,21.14
2022-10-10T12:36:18.388Z,21.24
2022-10-10T12:39:19.808Z,21.38
2022-10-10T12:42:39.142Z,21.38
2022-10-10T12:45:40.552Z,21.37
2022-10-10T12:48:44.378Z,21.48
2022-10-10T12:52:03.371Z,21.47
2022-10-10T12:55:09.466Z,21.48
2022-10-10T12:58:26.565Z,21.53
2022-10-10T13:01:34.281Z,21.66
2022-10-10T13:04:35.912Z,21.70
2022-10-10T13:07:38.324Z,21.81
2022-10-10T13:10:39.838Z,21.91
2022-10-10T13:13:50.028Z,22.00
2022-10-10T13:16:51.936Z,22.09
2022-10-10T13:19:54.462Z,22.16
2022-10-10T13:22:56.692Z,22.19
2022-10-10T13:25:59.805Z,22.27
2022-10-10T13:29:12.161Z,22.47
2022-10-10T13:32:17.333Z,22.45
2022-10-10T13:35:24.745Z,22.36
2022-10-10T13:38:26.686Z,22.30
2022-10-10T13:41:28.865Z,22.25
2022-10-10T13:44:46.039Z,22.24
2022-10-10T13:47:55.368Z,22.11
2022-10-10T13:51:07.400Z,22.06
2022-10-10T13:54:42.862Z,21.95
2022-10-10T13:57:44.627Z,21.98
2022-10-10T14:00:55.240Z,22.14
2022-10-10T14:04:02.877Z,22.18
2022-10-10T14:07:18.195Z,22.29
2022-10-10T14:10:25.125Z,22.54
2022-10-10T14:13:27.841Z,22.45
2022-10-10T14:16:32.432Z,22.38
2022-10-10T14:19:34.127Z,22.22
2022-10-10T14:22:35.761Z,22.21
2022-10-10T14:25:39.871Z,22.22
2022-10-10T14:28:41.975Z,22.16
2022-10-10T14:31:45.055Z,22.26
2022-10-10T14:34:47.304Z,22.40
2022-10-10T14:37:48.817Z,22.51
2022-10-10T14:40:51.146Z,22.19
2022-10-10T14:43:52.625Z,22.05
2022-10-10T14:46:54.148Z,21.86
2022-10-10T14:49:57.854Z,21.91
2022-10-10T14:52:59.447Z,22.33
2022-10-10T14:56:00.916Z,22.72
2022-10-10T14:59:02.517Z,22.68
2022-10-10T15:02:04.054Z,22.76
2022-10-10T15:05:06.337Z,22.63
2022-10-10T15:08:08.170Z,22.69
2022-10-10T15:11:15.369Z,22.91
2022-10-10T15:14:16.893Z,23.01
2022-10-10T15:17:18.634Z,22.95
2022-10-10T15:20:23.979Z,22.99
2022-10-10T15:23:26.921Z,22.94
2022-10-10T15:26:28.429Z,22.59
2022-10-10T15:29:29.885Z,22.14
2022-10-10T15:32:31.383Z,22.22
2022-10-10T15:35:50.331Z,22.54
2022-10-10T15:38:55.351Z,23.05
2022-10-10T15:41:57.685Z,22.94
2022-10-10T15:44:59.256Z,22.42
2022-10-10T15:48:00.777Z,22.13
2022-10-10T15:51:07.019Z,21.95
2022-10-10T15:54:08.749Z,21.68
2022-10-10T15:57:10.300Z,21.58
2022-10-10T16:00:12.459Z,21.29
2022-10-10T16:03:14.119Z,21.04
2022-10-10T16:06:18.239Z,20.71
2022-10-10T16:09:28.147Z,20.35
2022-10-10T16:12:30.449Z,19.96
2022-10-10T16:15:32.561Z,19.61
2022-10-10T16:18:39.976Z,19.43
2022-10-10T16:21:42.474Z,19.28
2022-10-10T16:24:53.980Z,19.20
2022-10-10T16:28:05.549Z,19.05
2022-10-10T16:31:09.998Z,18.86
2022-10-10T16:34:12.862Z,18.64
2022-10-10T16:37:14.401Z,18.50
2022-10-10T16:40:16.021Z,18.30
2022-10-10T16:43:17.597Z,18.00
2022-10-10T16:46:22.684Z,17.75
2022-10-10T16:49:24.111Z,17.62
2022-10-10T16:52:25.620Z,17.46
2022-10-10T16:55:27.159Z,17.34
2022-10-10T16:58:29.560Z,17.27
2022-10-10T17:01:31.569Z,17.17
2022-10-10T17:04:33.310Z,17.07
2022-10-10T17:07:36.319Z,17.02
2022-10-10T17:10:37.828Z,16.88
2022-10-10T17:13:39.305Z,16.74
2022-10-10T17:20:02.858Z,16.51
2022-10-10T17:23:04.614Z,16.38
2022-10-10T17:26:11.917Z,16.32
2022-10-10T17:29:14.278Z,16.23
2022-10-10T17:32:15.843Z,16.01
2022-10-10T17:35:17.477Z,16.01
2022-10-10T17:38:38.329Z,15.97
2022-10-10T17:41:41.000Z,15.88
2022-10-10T17:44:49.579Z,15.83
2022-10-10T17:47:53.920Z,15.73
2022-10-10T17:50:56.470Z,15.73
2022-10-10T17:54:03.124Z,15.63
2022-10-10T17:57:04.686Z,15.54
2022-10-10T18:00:06.756Z,15.48
2022-10-10T18:03:09.191Z,15.36
2022-10-10T18:06:17.027Z,15.36
2022-10-10T18:09:18.729Z,15.29
2022-10-10T18:12:20.436Z,15.33
2022-10-10T18:15:22.484Z,15.32
2022-10-10T18:18:23.968Z,15.33
2022-10-10T18:21:25.897Z,15.26
2022-10-10T18:24:27.417Z,15.18
2022-10-10T18:27:30.191Z,15.19
2022-10-10T18:30:33.142Z,15.18
2022-10-10T18:33:34.827Z,15.15
2022-10-10T18:36:39.276Z,15.14
2022-10-10T18:39:42.224Z,15.14
2022-10-10T18:42:43.751Z,15.12
2022-10-10T18:45:45.309Z,15.09
2022-10-10T18:48:51.517Z,15.11
2022-10-10T18:51:55.558Z,15.07
2022-10-10T18:54:57.136Z,14.90
2022-10-10T18:57:59.157Z,14.90
2022-10-10T19:01:02.998Z,14.86
2022-10-10T19:04:07.488Z,14.86
2022-10-10T19:07:08.899Z,14.78
2022-10-10T19:10:10.380Z,14.69
2022-10-10T19:13:12.820Z,14.67
2022-10-10T19:16:14.529Z,14.86
2022-10-10T19:19:18.129Z,14.87
2022-10-10T19:22:19.588Z,14.87
2022-10-10T19:25:21.056Z,14.94
2022-10-10T19:28:22.843Z,14.94
2022-10-10T19:31:24.329Z,14.91
2022-10-10T19:34:25.892Z,14.93
2022-10-10T19:37:27.378Z,14.78
2022-10-10T19:40:28.981Z,14.90
2022-10-10T19:43:30.456Z,14.97
2022-10-10T19:46:36.682Z,15.02
2022-10-10T19:49:38.847Z,15.06
2022-10-10T19:52:40.384Z,14.98
2022-10-10T19:55:41.967Z,14.92
2022-10-10T19:58:43.521Z,14.88
2022-10-10T20:01:45.171Z,14.88
2022-10-10T20:04:46.789Z,14.82
2022-10-10T20:07:51.685Z,14.80
2022-10-10T20:10:53.496Z,14.81
2022-10-10T20:13:55.840Z,14.75
2022-10-10T20:16:57.790Z,14.76
2022-10-10T20:19:59.785Z,14.79
2022-10-10T20:23:02.064Z,14.83
2022-10-10T20:26:08.848Z,14.82
2022-10-10T20:29:11.957Z,14.82
2022-10-10T20:32:13.457Z,14.76
2022-10-10T20:35:22.933Z,14.71
2022-10-10T20:38:24.553Z,14.60
2022-10-10T20:41:29.802Z,14.55
2022-10-10T20:44:33.765Z,14.53
2022-10-10T20:47:35.383Z,14.63
2022-10-10T20:50:38.148Z,14.66
2022-10-10T20:53:43.782Z,14.69
2022-10-10T20:56:45.420Z,14.68
2022-10-10T20:59:46.844Z,14.67
2022-10-10T21:02:49.348Z,14.55
2022-10-10T21:06:01.336Z,14.53
2022-10-10T21:09:05.999Z,14.56
2022-10-10T21:12:07.539Z,14.59
2022-10-10T21:15:09.387Z,14.60
2022-10-10T21:18:10.911Z,14.63
2022-10-10T21:21:13.138Z,14.65
2022-10-10T21:24:14.941Z,14.67
2022-10-10T21:27:16.985Z,14.67
2022-10-10T21:30:18.589Z,14.66
2022-10-10T21:33:20.165Z,14.63
2022-10-10T21:36:23.994Z,14.64
2022-10-10T21:39:25.422Z,14.59
2022-10-10T21:42:29.647Z,14.56
2022-10-10T21:45:35.502Z,14.57
2022-10-10T21:48:37.513Z,14.57
2022-10-10T21:51:42.128Z,14.54
2022-10-10T21:54:43.688Z,14.57
2022-10-10T21:57:45.219Z,14.51
2022-10-10T22:00:46.771Z,14.49
2022-10-10T22:03:50.172Z,14.47
2022-10-10T22:06:51.641Z,14.44
2022-10-10T22:09:53.117Z,14.46
2022-10-10T22:12:55.038Z,14.34
2022-10-10T22:15:57.128Z,14.37
2022-10-10T22:18:59.242Z,14.34
2022-10-10T22:22:00.744Z,14.31
2022-10-10T22:25:02.632Z,14.31
2022-10-10T22:28:06.314Z,14.24
2022-10-10T22:31:09.713Z,14.23
2022-10-10T22:34:11.709Z,14.18
2022-10-10T22:37:13.237Z,14.13
2022-10-10T22:40:14.842Z,14.12
2022-10-10T22:43:16.345Z,14.09
2022-10-10T22:46:17.959Z,13.99
2022-10-10T22:49:19.444Z,13.90
2022-10-10T22:52:20.883Z,13.85
2022-10-10T22:55:22.437Z,13.77
2022-10-10T22:58:24.428Z,13.71
2022-10-10T23:01:26.543Z,13.66
2022-10-10T23:04:28.125Z,13.64
2022-10-10T23:07:29.601Z,13.61
2022-10-10T23:10:31.033Z,13.57
2022-10-10T23:13:32.889Z,13.55
2022-10-10T23:16:36.502Z,13.52
2022-10-10T23:19:41.264Z,13.53
2022-10-10T23:22:42.778Z,13.55
2022-10-10T23:25:46.391Z,13.50
2022-10-10T23:28:50.004Z,13.56
2022-10-10T23:31:51.617Z,13.57
2022-10-10T23:34:53.102Z,13.54
2022-10-10T23:37:56.453Z,13.55
2022-10-10T23:40:57.912Z,13.57
2022-10-10T23:43:59.405Z,13.57
2022-10-10T23:47:00.888Z,13.58
2022-10-10T23:50:02.394Z,13.56
2022-10-10T23:53:04.304Z,13.53
2022-10-10T23:56:06.375Z,13.59
2022-10-10T23:59:08.191Z,13.57
